createdAt,value
2022-09-28T00:00:27.849Z,15.10
2022-09-28T00:01:27.877Z,16.40
2022-09-28T00:02:27.986Z,16.90
2022-09-28T00:03:27.813Z,16.70
2022-09-28T00:04:27.800Z,17.70
2022-09-28T00:05:27.781Z,15.70
2022-09-28T00:06:27.766Z,15.60
2022-09-28T00:07:27.797Z,16.00
2022-09-28T00:08:27.786Z,19.90
2022-09-28T00:09:27.729Z,16.30
2022-09-28T00:10:27.705Z,17.10
2022-09-28T00:11:27.682Z,16.00
2022-09-28T00:12:27.683Z,16.20
2022-09-28T00:13:27.624Z,17.10
2022-09-28T00:14:27.625Z,17.20
2022-09-28T00:15:27.589Z,18.10
2022-09-28T00:16:27.630Z,16.00
2022-09-28T00:17:27.593Z,18.00
2022-09-28T00:18:27.548Z,14.90
2022-09-28T00:19:27.523Z,14.90
2022-09-28T00:20:27.512Z,17.00
2022-09-28T00:21:27.504Z,17.00
2022-09-28T00:22:27.516Z,15.60
2022-09-28T00:23:27.468Z,18.40
2022-09-28T00:24:27.880Z,16.50
2022-09-28T00:25:28.426Z,16.40
2022-09-28T00:26:27.447Z,15.80
2022-09-28T00:27:27.420Z,15.20
2022-09-28T00:28:27.371Z,14.50
2022-09-28T00:29:27.371Z,15.20
2022-09-28T00:30:27.338Z,15.00
2022-09-28T00:31:27.355Z,15.80
2022-09-28T00:32:27.329Z,16.50
2022-09-28T00:33:27.284Z,14.30
2022-09-28T00:34:27.259Z,13.90
2022-09-28T00:35:27.253Z,17.00
2022-09-28T00:36:27.236Z,14.20
2022-09-28T00:37:27.249Z,14.70
2022-09-28T00:38:27.219Z,15.20
2022-09-28T00:39:27.279Z,15.10
2022-09-28T00:40:27.279Z,16.90
2022-09-28T00:41:27.170Z,15.80
2022-09-28T00:42:27.167Z,16.60
2022-09-28T00:43:27.118Z,14.80
2022-09-28T00:44:27.145Z,16.00
2022-09-28T00:45:27.160Z,14.90
2022-09-28T00:46:27.082Z,13.40
2022-09-28T00:47:27.098Z,11.00
2022-09-28T00:48:27.054Z,14.60
2022-09-28T00:49:27.010Z,14.90
2022-09-28T00:50:28.012Z,13.60
2022-09-28T00:51:26.997Z,14.60
2022-09-28T00:52:27.000Z,12.10
2022-09-28T00:53:26.970Z,13.10
2022-09-28T00:54:26.920Z,13.30
2022-09-28T00:55:26.915Z,13.60
2022-09-28T00:56:26.900Z,13.40
2022-09-28T00:57:26.910Z,11.50
2022-09-28T00:58:26.862Z,13.70
2022-09-28T00:59:26.872Z,13.00
2022-09-28T01:00:26.838Z,12.20
2022-09-28T01:01:26.880Z,12.60
2022-09-28T01:02:26.853Z,14.00
2022-09-28T01:03:26.779Z,12.30
2022-09-28T01:04:29.810Z,14.90
2022-09-28T01:05:27.730Z,12.80
2022-09-28T01:06:26.717Z,13.00
2022-09-28T01:07:26.728Z,10.60
2022-09-28T01:08:26.701Z,13.20
2022-09-28T01:09:26.670Z,13.80
2022-09-28T01:10:26.645Z,11.70
2022-09-28T01:11:27.680Z,11.50
2022-09-28T01:12:26.620Z,11.90
2022-09-28T01:13:26.593Z,11.90
2022-09-28T01:14:26.592Z,12.20
2022-09-28T01:15:26.559Z,11.70
2022-09-28T01:16:26.584Z,13.80
2022-09-28T01:17:26.566Z,13.80
2022-09-28T01:18:26.520Z,12.80
2022-09-28T01:19:26.492Z,15.00
2022-09-28T01:20:26.482Z,13.90
2022-09-28T01:21:26.479Z,13.80
2022-09-28T01:22:26.481Z,15.90
2022-09-28T01:23:26.475Z,14.80
2022-09-28T01:24:26.419Z,14.50
2022-09-28T01:25:26.404Z,15.70
2022-09-28T01:26:26.385Z,14.30
2022-09-28T01:27:26.394Z,17.50
2022-09-28T01:28:26.338Z,17.50
2022-09-28T01:29:26.339Z,17.60
2022-09-28T01:30:26.319Z,18.10
2022-09-28T01:31:26.406Z,16.00
2022-09-28T01:32:26.277Z,17.30
2022-09-28T01:33:26.273Z,17.00
2022-09-28T01:34:26.249Z,21.00
2022-09-28T01:35:26.232Z,17.90
2022-09-28T01:36:26.239Z,19.40
2022-09-28T01:37:26.194Z,16.60
2022-09-28T01:38:26.195Z,17.50
2022-09-28T01:39:26.163Z,15.80
2022-09-28T01:40:26.237Z,17.50
2022-09-28T01:41:26.172Z,16.90
2022-09-28T01:42:26.126Z,17.10
2022-09-28T01:43:26.087Z,15.80
2022-09-28T01:44:26.082Z,16.70
2022-09-28T01:45:26.069Z,20.40
2022-09-28T01:46:26.111Z,19.30
2022-09-28T01:47:26.023Z,17.40
2022-09-28T01:48:26.016Z,15.90
2022-09-28T01:49:26.986Z,15.50
2022-09-28T01:50:25.976Z,16.20
2022-09-28T01:51:25.985Z,16.50
2022-09-28T01:52:26.005Z,15.30
2022-09-28T01:53:25.929Z,16.10
2022-09-28T01:54:25.906Z,17.70
2022-09-28T01:55:25.874Z,16.20
2022-09-28T01:56:25.870Z,17.70
2022-09-28T01:57:25.945Z,16.30
2022-09-28T01:58:25.841Z,16.20
2022-09-28T01:59:25.806Z,17.70
2022-09-28T02:00:25.930Z,17.30
2022-09-28T02:01:25.783Z,15.80
2022-09-28T02:02:25.856Z,17.30
2022-09-28T02:03:25.748Z,17.40
2022-09-28T02:04:25.754Z,15.90
2022-09-28T02:05:25.722Z,18.10
2022-09-28T02:06:25.685Z,17.50
2022-09-28T02:07:25.696Z,16.60
2022-09-28T02:08:25.655Z,16.50
2022-09-28T02:09:27.007Z,17.70
2022-09-28T02:10:25.622Z,15.00
2022-09-28T02:11:25.622Z,15.40
2022-09-28T02:12:25.619Z,14.10
2022-09-28T02:13:25.579Z,15.80
2022-09-28T02:14:25.551Z,14.80
2022-09-28T02:15:25.555Z,15.10
2022-09-28T02:16:25.598Z,13.80
2022-09-28T02:17:25.545Z,13.80
2022-09-28T02:18:25.500Z,13.60
2022-09-28T02:19:25.482Z,13.20
2022-09-28T02:20:25.455Z,12.70
2022-09-28T02:21:25.440Z,10.80
2022-09-28T02:22:25.459Z,12.50
2022-09-28T02:23:25.402Z,13.60
2022-09-28T02:24:25.397Z,12.90
2022-09-28T02:25:25.371Z,11.30
2022-09-28T02:26:25.351Z,11.60
2022-09-28T02:27:25.373Z,11.60
2022-09-28T02:28:25.315Z,10.90
2022-09-28T02:29:25.304Z,11.20
2022-09-28T02:30:25.279Z,11.10
2022-09-28T02:31:25.307Z,11.90
2022-09-28T02:32:25.270Z,12.00
2022-09-28T02:33:25.249Z,10.40
2022-09-28T02:34:25.207Z,12.10
2022-09-28T02:35:25.202Z,11.60
2022-09-28T02:36:25.190Z,9.90
2022-09-28T02:37:25.194Z,11.30
2022-09-28T02:38:25.141Z,10.20
2022-09-28T02:39:25.142Z,10.60
2022-09-28T02:40:25.180Z,11.20
2022-09-28T02:41:25.106Z,10.00
2022-09-28T02:42:25.126Z,9.70
2022-09-28T02:43:25.054Z,9.00
2022-09-28T02:44:25.038Z,7.40
2022-09-28T02:45:25.082Z,8.80
2022-09-28T02:46:24.994Z,10.30
2022-09-28T02:47:26.032Z,8.80
2022-09-28T02:48:42.728Z,10.30
2022-09-28T02:49:26.970Z,9.00
2022-09-28T02:50:24.938Z,8.50
2022-09-28T02:51:24.927Z,9.00
2022-09-28T02:52:24.935Z,10.80
2022-09-28T02:53:24.882Z,9.90
2022-09-28T02:54:24.876Z,9.50
2022-09-28T02:55:24.850Z,9.10
2022-09-28T02:56:24.838Z,9.80
2022-09-28T02:57:24.851Z,11.30
2022-09-28T02:58:24.800Z,10.80
2022-09-28T02:59:24.793Z,9.30
2022-09-28T03:00:24.771Z,9.10
2022-09-28T03:01:24.825Z,8.40
2022-09-28T03:02:24.786Z,11.70
2022-09-28T03:03:24.750Z,10.40
2022-09-28T03:04:24.706Z,8.80
2022-09-28T03:05:24.761Z,10.10
2022-09-28T03:06:24.665Z,10.40
2022-09-28T03:07:24.677Z,9.40
2022-09-28T03:08:24.628Z,9.30
2022-09-28T03:09:24.625Z,8.60
2022-09-28T03:10:24.701Z,9.00
2022-09-28T03:11:24.590Z,8.20
2022-09-28T03:12:24.595Z,8.80
2022-09-28T03:13:24.546Z,9.90
2022-09-28T03:14:24.525Z,8.40
2022-09-28T03:15:24.513Z,9.90
2022-09-28T03:16:24.534Z,9.70
2022-09-28T03:17:24.507Z,10.40
2022-09-28T03:18:24.474Z,8.60
2022-09-28T03:19:24.446Z,10.50
2022-09-28T03:20:24.439Z,8.90
2022-09-28T03:21:24.415Z,7.90
2022-09-28T03:22:24.423Z,9.50
2022-09-28T03:23:25.446Z,8.10
2022-09-28T03:24:25.353Z,9.70
2022-09-28T03:25:24.344Z,10.70
2022-09-28T03:26:24.348Z,7.70
2022-09-28T03:27:24.339Z,10.50
2022-09-28T03:28:24.299Z,9.90
2022-09-28T03:29:24.303Z,8.50
2022-09-28T03:30:24.270Z,9.90
2022-09-28T03:31:24.338Z,9.90
2022-09-28T03:32:24.269Z,10.10
2022-09-28T03:33:24.227Z,12.90
2022-09-28T03:34:24.190Z,10.70
2022-09-28T03:35:24.163Z,10.10
2022-09-28T03:36:24.165Z,10.30
2022-09-28T03:37:24.154Z,10.70
2022-09-28T03:38:24.127Z,11.30
2022-09-28T03:39:24.120Z,12.40
2022-09-28T03:40:24.111Z,11.50
2022-09-28T03:41:24.085Z,14.80
2022-09-28T03:42:25.199Z,12.50
2022-09-28T03:43:24.055Z,12.30
2022-09-28T03:44:24.013Z,12.20
2022-09-28T03:45:24.030Z,11.20
2022-09-28T03:46:23.970Z,12.80
2022-09-28T03:47:23.993Z,13.00
2022-09-28T03:48:26.666Z,13.30
2022-09-28T03:49:24.924Z,17.60
2022-09-28T03:50:23.906Z,15.60
2022-09-28T03:51:23.914Z,15.70
2022-09-28T03:52:23.902Z,15.90
2022-09-28T03:53:23.859Z,11.70
2022-09-28T03:54:23.841Z,11.90
2022-09-28T03:55:23.820Z,11.60
2022-09-28T03:56:23.797Z,12.00
2022-09-28T03:57:23.827Z,11.40
2022-09-28T03:58:23.779Z,11.10
2022-09-28T03:59:23.755Z,12.80
2022-09-28T04:00:23.748Z,11.60
2022-09-28T04:01:23.741Z,12.10
2022-09-28T04:02:23.956Z,12.90
2022-09-28T04:03:23.694Z,11.40
2022-09-28T04:04:23.720Z,10.40
2022-09-28T04:05:23.667Z,12.10
2022-09-28T04:06:23.652Z,12.20
2022-09-28T04:07:26.859Z,12.30
2022-09-28T04:08:24.599Z,12.20
2022-09-28T04:09:23.607Z,13.80
2022-09-28T04:10:23.560Z,17.90
2022-09-28T04:11:23.549Z,14.50
2022-09-28T04:12:23.575Z,14.50
2022-09-28T04:13:23.509Z,15.50
2022-09-28T04:14:23.501Z,15.30
2022-09-28T04:15:23.490Z,14.00
2022-09-28T04:16:23.493Z,16.70
2022-09-28T04:17:23.481Z,15.90
2022-09-28T04:18:23.461Z,15.80
2022-09-28T04:19:23.420Z,13.60
2022-09-28T04:20:23.425Z,15.40
2022-09-28T04:21:23.410Z,12.70
2022-09-28T04:22:23.419Z,12.80
2022-09-28T04:23:23.363Z,11.60
2022-09-28T04:24:23.352Z,12.70
2022-09-28T04:25:23.318Z,14.20
2022-09-28T04:26:23.290Z,17.30
2022-09-28T04:27:23.316Z,14.50
2022-09-28T04:28:23.266Z,12.70
2022-09-28T04:29:23.269Z,12.30
2022-09-28T04:30:23.247Z,11.60
2022-09-28T04:31:23.252Z,16.30
2022-09-28T04:32:23.230Z,11.30
2022-09-28T04:33:23.253Z,15.90
2022-09-28T04:34:23.166Z,12.50
2022-09-28T04:35:23.146Z,12.70
2022-09-28T04:36:23.189Z,11.20
2022-09-28T04:37:23.130Z,10.10
2022-09-28T04:38:35.800Z,10.30
2022-09-28T04:39:25.089Z,12.80
2022-09-28T04:40:23.080Z,10.90
2022-09-28T04:41:23.034Z,9.00
2022-09-28T04:42:23.071Z,8.10
2022-09-28T04:43:23.006Z,11.20
2022-09-28T04:44:22.995Z,11.40
2022-09-28T04:45:22.979Z,12.00
2022-09-28T04:46:22.978Z,13.70
2022-09-28T04:47:22.971Z,12.60
2022-09-28T04:48:22.919Z,9.20
2022-09-28T04:49:22.913Z,11.90
2022-09-28T04:50:22.887Z,10.20
2022-09-28T04:51:22.871Z,14.10
2022-09-28T04:52:22.894Z,9.60
2022-09-28T04:53:22.848Z,9.80
2022-09-28T04:54:22.810Z,12.20
2022-09-28T04:55:22.798Z,8.60
2022-09-28T04:56:22.788Z,8.90
2022-09-28T04:57:22.772Z,8.20
2022-09-28T04:58:22.808Z,8.20
2022-09-28T04:59:22.737Z,8.80
2022-09-28T05:00:22.741Z,8.50
2022-09-28T05:01:22.781Z,10.50
2022-09-28T05:02:22.714Z,8.00
2022-09-28T05:03:22.705Z,7.20
2022-09-28T05:04:25.937Z,7.00
2022-09-28T05:05:23.642Z,6.80
2022-09-28T05:06:22.632Z,6.50
2022-09-28T05:07:22.594Z,8.00
2022-09-28T05:08:22.645Z,8.90
2022-09-28T05:09:22.559Z,8.70
2022-09-28T05:10:22.549Z,8.70
2022-09-28T05:11:22.517Z,7.70
2022-09-28T05:12:22.504Z,8.30
2022-09-28T05:13:22.531Z,9.50
2022-09-28T05:14:22.495Z,9.80
2022-09-28T05:15:22.498Z,11.20
2022-09-28T05:16:22.491Z,10.50
2022-09-28T05:17:22.439Z,11.10
2022-09-28T05:18:22.476Z,10.40
2022-09-28T05:19:22.393Z,11.20
2022-09-28T05:20:22.385Z,11.10
2022-09-28T05:21:22.368Z,13.40
2022-09-28T05:22:22.339Z,12.60
2022-09-28T05:23:22.344Z,12.40
2022-09-28T05:24:23.317Z,13.90
2022-09-28T05:25:22.298Z,13.80
2022-09-28T05:26:22.277Z,13.70
2022-09-28T05:27:22.277Z,14.40
2022-09-28T05:28:22.257Z,10.40
2022-09-28T05:29:22.225Z,11.00
2022-09-28T05:30:22.194Z,10.60
2022-09-28T05:31:22.270Z,10.70
2022-09-28T05:32:22.223Z,8.60
2022-09-28T05:33:22.184Z,9.00
2022-09-28T05:34:22.220Z,8.90
2022-09-28T05:35:22.161Z,8.60
2022-09-28T05:36:22.114Z,9.10
2022-09-28T05:37:22.088Z,8.50
2022-09-28T05:38:22.116Z,8.00
2022-09-28T05:39:22.068Z,9.40
2022-09-28T05:40:22.080Z,8.60
2022-09-28T05:41:22.013Z,8.70
2022-09-28T05:42:21.998Z,10.20
2022-09-28T05:43:22.184Z,7.90
2022-09-28T05:44:22.009Z,10.30
2022-09-28T05:45:21.955Z,11.20
2022-09-28T05:46:22.118Z,10.40
2022-09-28T05:47:21.930Z,8.60
2022-09-28T05:48:21.983Z,8.90
2022-09-28T05:49:21.888Z,8.60
2022-09-28T05:50:21.854Z,13.90
2022-09-28T05:51:21.859Z,19.20
2022-09-28T05:52:21.834Z,16.10
2022-09-28T05:53:21.845Z,13.50
2022-09-28T05:54:21.787Z,12.70
2022-09-28T05:55:21.783Z,11.20
2022-09-28T05:56:21.759Z,9.80
2022-09-28T05:57:21.740Z,13.40
2022-09-28T05:58:21.759Z,10.10
2022-09-28T05:59:22.066Z,9.40
2022-09-28T06:00:21.730Z,9.50
2022-09-28T06:01:21.689Z,9.10
2022-09-28T06:02:21.747Z,9.80
2022-09-28T06:03:21.726Z,12.30
2022-09-28T06:04:21.633Z,10.70
2022-09-28T06:05:21.605Z,13.00
2022-09-28T06:06:21.608Z,17.20
2022-09-28T06:07:21.579Z,17.50
2022-09-28T06:08:21.576Z,18.60
2022-09-28T06:09:25.707Z,15.50
2022-09-28T06:10:22.549Z,12.80
2022-09-28T06:11:21.507Z,13.80
2022-09-28T06:12:21.497Z,13.80
2022-09-28T06:13:21.500Z,12.30
2022-09-28T06:14:21.456Z,9.60
2022-09-28T06:15:21.451Z,10.70
2022-09-28T06:16:21.437Z,10.80
2022-09-28T06:17:21.414Z,11.60
2022-09-28T06:18:21.427Z,10.70
2022-09-28T06:19:21.376Z,9.60
2022-09-28T06:20:21.368Z,9.50
2022-09-28T06:21:21.318Z,10.70
2022-09-28T06:22:21.323Z,10.70
2022-09-28T06:23:21.316Z,11.20
2022-09-28T06:24:21.270Z,11.60
2022-09-28T06:25:21.268Z,11.90
2022-09-28T06:26:21.241Z,10.70
2022-09-28T06:27:21.243Z,10.80
2022-09-28T06:28:21.239Z,10.90
2022-09-28T06:29:21.216Z,10.30
2022-09-28T06:30:21.177Z,11.40
2022-09-28T06:31:21.227Z,10.50
2022-09-28T06:32:21.138Z,10.80
2022-09-28T06:33:21.169Z,10.40
2022-09-28T06:34:21.120Z,12.70
2022-09-28T06:35:21.084Z,11.00
2022-09-28T06:36:21.090Z,12.80
2022-09-28T06:37:21.049Z,11.70
2022-09-28T06:38:21.065Z,10.70
2022-09-28T06:39:21.013Z,12.50
2022-09-28T06:40:21.050Z,12.00
2022-09-28T06:41:20.984Z,11.80
2022-09-28T06:42:20.975Z,10.70
2022-09-28T06:43:21.015Z,11.80
2022-09-28T06:44:20.956Z,9.90
2022-09-28T06:45:20.914Z,10.90
2022-09-28T06:46:20.982Z,9.70
2022-09-28T06:47:20.885Z,10.40
2022-09-28T06:48:20.923Z,12.30
2022-09-28T06:49:20.848Z,13.70
2022-09-28T06:50:20.834Z,9.90
2022-09-28T06:51:21.815Z,10.20
2022-09-28T06:52:20.800Z,9.60
2022-09-28T06:53:20.849Z,12.40
2022-09-28T06:54:20.775Z,11.20
2022-09-28T06:55:20.821Z,12.10
2022-09-28T06:56:20.799Z,10.30
2022-09-28T06:57:20.721Z,10.70
2022-09-28T06:58:20.740Z,12.60
2022-09-28T06:59:20.686Z,12.70
2022-09-28T07:00:20.674Z,10.60
2022-09-28T07:01:20.756Z,12.10
2022-09-28T07:02:20.704Z,10.90
2022-09-28T07:03:20.654Z,10.30
2022-09-28T07:04:20.592Z,10.50
2022-09-28T07:05:20.577Z,10.70
2022-09-28T07:06:20.577Z,10.00
2022-09-28T07:07:20.554Z,10.60
2022-09-28T07:08:20.552Z,11.80
2022-09-28T07:09:31.886Z,11.60
2022-09-28T07:10:22.510Z,12.20
2022-09-28T07:11:20.475Z,12.60
2022-09-28T07:12:20.492Z,13.60
2022-09-28T07:13:46.283Z,13.20
2022-09-28T07:14:42.658Z,12.10
2022-09-28T07:15:22.496Z,11.60
2022-09-28T07:16:25.770Z,13.60
2022-09-28T07:17:22.480Z,11.90
2022-09-28T07:18:20.515Z,11.50
2022-09-28T07:19:20.352Z,11.50
2022-09-28T07:20:20.348Z,12.30
2022-09-28T07:21:28.777Z,10.50
2022-09-28T07:22:37.634Z,9.70
2022-09-28T07:23:22.382Z,10.00
2022-09-28T07:24:20.488Z,10.80
2022-09-28T07:25:20.251Z,8.60
2022-09-28T07:26:23.611Z,8.40
2022-09-28T07:27:23.445Z,9.50
2022-09-28T07:28:21.223Z,8.20
2022-09-28T07:29:20.191Z,8.50
2022-09-28T07:30:20.169Z,8.00
2022-09-28T07:31:20.195Z,9.60
2022-09-28T07:32:20.167Z,10.10
2022-09-28T07:33:20.136Z,9.70
2022-09-28T07:34:20.180Z,9.30
2022-09-28T07:35:20.058Z,8.60
2022-09-28T07:36:20.062Z,9.20
2022-09-28T07:37:20.036Z,10.50
2022-09-28T07:38:20.045Z,10.60
2022-09-28T07:39:19.991Z,10.50
2022-09-28T07:40:20.046Z,10.80
2022-09-28T07:41:19.958Z,12.50
2022-09-28T07:42:19.955Z,12.20
2022-09-28T07:43:19.970Z,11.60
2022-09-28T07:44:19.913Z,9.30
2022-09-28T07:45:19.894Z,11.10
2022-09-28T07:46:19.918Z,11.00
2022-09-28T07:47:19.863Z,12.50
2022-09-28T07:48:19.889Z,15.40
2022-09-28T07:49:20.005Z,16.60
2022-09-28T07:50:19.819Z,10.80
2022-09-28T07:51:19.822Z,10.30
2022-09-28T07:52:19.779Z,12.30
2022-09-28T07:53:19.790Z,10.30
2022-09-28T07:54:19.736Z,12.00
2022-09-28T07:55:19.736Z,10.80
2022-09-28T07:56:19.708Z,10.80
2022-09-28T07:57:19.729Z,9.80
2022-09-28T07:58:19.721Z,12.70
2022-09-28T07:59:19.674Z,12.30
2022-09-28T08:00:19.645Z,8.90
2022-09-28T08:01:19.702Z,10.40
2022-09-28T08:02:19.632Z,9.90
2022-09-28T08:03:19.632Z,9.10
2022-09-28T08:04:19.565Z,10.60
2022-09-28T08:05:19.550Z,9.90
2022-09-28T08:06:19.525Z,8.10
2022-09-28T08:07:22.900Z,7.40
2022-09-28T08:08:20.542Z,6.90
2022-09-28T08:09:19.493Z,8.70
2022-09-28T08:10:19.474Z,7.70
2022-09-28T08:11:19.482Z,8.60
2022-09-28T08:12:19.434Z,6.90
2022-09-28T08:13:20.443Z,6.60
2022-09-28T08:14:19.412Z,6.60
2022-09-28T08:15:19.382Z,5.30
2022-09-28T08:16:19.465Z,4.70
2022-09-28T08:17:19.372Z,4.80
2022-09-28T08:18:19.362Z,5.10
2022-09-28T08:19:19.527Z,5.20
2022-09-28T08:20:19.307Z,6.10
2022-09-28T08:21:19.265Z,4.70
2022-09-28T08:22:19.262Z,4.90
2022-09-28T08:23:19.265Z,4.20
2022-09-28T08:24:19.361Z,3.70
2022-09-28T08:25:19.196Z,7.60
2022-09-28T08:26:19.199Z,3.80
2022-09-28T08:27:19.159Z,3.10
2022-09-28T08:28:19.148Z,4.70
2022-09-28T08:29:19.153Z,3.30
2022-09-28T08:30:19.120Z,3.60
2022-09-28T08:31:19.146Z,3.80
2022-09-28T08:32:19.077Z,4.50
2022-09-28T08:33:19.109Z,3.90
2022-09-28T08:34:19.200Z,3.70
2022-09-28T08:35:19.034Z,3.90
2022-09-28T08:36:19.020Z,4.60
2022-09-28T08:37:19.003Z,4.40
2022-09-28T08:38:18.966Z,4.90
2022-09-28T08:39:18.995Z,3.40
2022-09-28T08:40:19.019Z,4.60
2022-09-28T08:41:18.939Z,4.70
2022-09-28T08:42:18.907Z,4.10
2022-09-28T08:43:18.907Z,3.30
2022-09-28T08:44:18.980Z,4.30
2022-09-28T08:45:18.862Z,3.80
2022-09-28T08:46:21.623Z,4.70
2022-09-28T08:47:18.840Z,4.70
2022-09-28T08:48:18.838Z,3.90
2022-09-28T08:49:25.500Z,3.50
2022-09-28T08:50:20.828Z,3.60
2022-09-28T08:51:18.814Z,4.70
2022-09-28T08:52:18.772Z,4.80
2022-09-28T08:53:18.749Z,5.20
2022-09-28T08:54:18.814Z,4.90
2022-09-28T08:55:18.688Z,4.80
2022-09-28T08:56:18.672Z,5.50
2022-09-28T08:57:18.672Z,5.30
2022-09-28T08:58:18.642Z,7.00
2022-09-28T08:59:18.656Z,6.10
2022-09-28T09:00:18.607Z,6.40
2022-09-28T09:01:18.613Z,6.20
2022-09-28T09:02:18.618Z,6.20
2022-09-28T09:03:18.574Z,6.10
2022-09-28T09:04:18.742Z,6.90
2022-09-28T09:05:18.530Z,6.30
2022-09-28T09:06:18.793Z,5.90
2022-09-28T09:07:19.489Z,7.10
2022-09-28T09:08:18.478Z,9.10
2022-09-28T09:09:18.506Z,6.70
2022-09-28T09:10:18.461Z,5.40
2022-09-28T09:11:18.424Z,6.40
2022-09-28T09:12:18.453Z,5.80
2022-09-28T09:13:18.398Z,6.60
2022-09-28T09:14:18.617Z,5.60
2022-09-28T09:15:18.370Z,5.00
2022-09-28T09:16:18.390Z,5.20
2022-09-28T09:17:18.383Z,5.50
2022-09-28T09:18:20.108Z,5.60
2022-09-28T09:19:19.391Z,5.40
2022-09-28T09:20:18.277Z,4.80
2022-09-28T09:21:18.281Z,5.40
2022-09-28T09:22:18.249Z,5.20
2022-09-28T09:23:18.259Z,5.50
2022-09-28T09:24:18.356Z,5.50
2022-09-28T09:25:18.252Z,6.20
2022-09-28T09:26:22.556Z,5.10
2022-09-28T09:27:20.189Z,5.60
2022-09-28T09:28:18.169Z,3.70
2022-09-28T09:29:18.186Z,4.60
2022-09-28T09:30:20.167Z,4.60
2022-09-28T09:31:22.581Z,4.90
2022-09-28T09:32:19.122Z,5.30
2022-09-28T09:33:18.064Z,4.10
2022-09-28T09:34:18.211Z,6.40
2022-09-28T09:35:19.137Z,5.70
2022-09-28T09:36:18.075Z,4.50
2022-09-28T09:37:18.005Z,5.50
2022-09-28T09:38:18.000Z,5.30
2022-09-28T09:39:18.021Z,5.80
2022-09-28T09:40:18.079Z,4.60
2022-09-28T09:41:17.960Z,5.80
2022-09-28T09:42:17.931Z,5.40
2022-09-28T09:43:17.935Z,6.00
2022-09-28T09:44:18.011Z,5.30
2022-09-28T09:45:17.898Z,7.10
2022-09-28T09:46:18.158Z,5.60
2022-09-28T09:47:17.848Z,5.40
2022-09-28T09:48:17.819Z,5.30
2022-09-28T09:49:17.867Z,4.10
2022-09-28T09:50:17.791Z,5.10
2022-09-28T09:51:17.780Z,5.00
2022-09-28T09:52:17.776Z,5.80
2022-09-28T09:53:17.748Z,5.00
2022-09-28T09:54:19.034Z,4.70
2022-09-28T09:55:17.724Z,4.60
2022-09-28T09:56:17.716Z,4.60
2022-09-28T09:57:17.688Z,5.40
2022-09-28T09:58:17.719Z,4.30
2022-09-28T09:59:17.774Z,4.40
2022-09-28T10:00:17.634Z,4.90
2022-09-28T10:01:17.657Z,3.90
2022-09-28T10:02:17.640Z,3.70
2022-09-28T10:03:17.592Z,4.20
2022-09-28T10:04:17.599Z,3.10
2022-09-28T10:05:17.558Z,3.50
2022-09-28T10:06:17.542Z,3.40
2022-09-28T10:07:17.524Z,3.50
2022-09-28T10:08:17.520Z,4.00
2022-09-28T10:09:17.576Z,3.90
2022-09-28T10:10:17.473Z,3.50
2022-09-28T10:11:17.454Z,4.30
2022-09-28T10:12:17.457Z,4.10
2022-09-28T10:13:17.418Z,5.00
2022-09-28T10:14:17.460Z,3.00
2022-09-28T10:15:17.429Z,2.70
2022-09-28T10:16:17.413Z,3.70
2022-09-28T10:17:17.356Z,3.10
2022-09-28T10:18:17.340Z,3.50
2022-09-28T10:19:17.497Z,4.60
2022-09-28T10:20:17.378Z,5.50
2022-09-28T10:21:17.292Z,5.20
2022-09-28T10:22:17.277Z,3.60
2022-09-28T10:23:17.331Z,4.40
2022-09-28T10:24:17.284Z,3.80
2022-09-28T10:25:17.233Z,6.50
2022-09-28T10:26:18.737Z,5.70
2022-09-28T10:27:17.212Z,4.90
2022-09-28T10:28:17.176Z,4.80
2022-09-28T10:29:17.341Z,4.10
2022-09-28T10:30:17.215Z,3.20
2022-09-28T10:31:17.138Z,4.60
2022-09-28T10:32:17.124Z,4.50
2022-09-28T10:33:17.109Z,4.00
2022-09-28T10:34:17.244Z,5.60
2022-09-28T10:35:17.068Z,6.30
2022-09-28T10:36:17.052Z,5.30
2022-09-28T10:37:17.039Z,3.00
2022-09-28T10:38:17.037Z,3.80
2022-09-28T10:39:17.063Z,4.30
2022-09-28T10:40:17.099Z,4.40
2022-09-28T10:41:16.976Z,3.60
2022-09-28T10:42:16.943Z,3.90
2022-09-28T10:43:16.944Z,4.00
2022-09-28T10:44:16.937Z,4.20
2022-09-28T10:45:16.886Z,5.00
2022-09-28T10:46:16.922Z,4.70
2022-09-28T10:47:16.854Z,4.00
2022-09-28T10:48:16.833Z,5.30
2022-09-28T10:49:16.857Z,4.60
2022-09-28T10:50:16.833Z,5.00
2022-09-28T10:51:16.787Z,5.30
2022-09-28T10:52:16.768Z,6.60
2022-09-28T10:53:16.756Z,5.30
2022-09-28T10:54:16.777Z,5.40
2022-09-28T10:55:16.732Z,6.50
2022-09-28T10:56:16.692Z,6.40
2022-09-28T10:57:16.685Z,7.80
2022-09-28T10:58:16.673Z,6.20
2022-09-28T10:59:16.693Z,5.60
2022-09-28T11:00:16.741Z,7.30
2022-09-28T11:01:16.718Z,6.30
2022-09-28T11:02:16.799Z,6.60
2022-09-28T11:03:16.587Z,7.10
2022-09-28T11:04:16.645Z,6.70
2022-09-28T11:05:16.552Z,7.90
2022-09-28T11:06:16.545Z,6.40
2022-09-28T11:07:17.356Z,8.00
2022-09-28T11:08:17.499Z,5.70
2022-09-28T11:09:16.589Z,6.70
2022-09-28T11:10:16.534Z,7.60
2022-09-28T11:11:16.454Z,7.10
2022-09-28T11:12:16.438Z,7.20
2022-09-28T11:13:16.410Z,6.50
2022-09-28T11:14:16.444Z,6.00
2022-09-28T11:15:16.384Z,5.00
2022-09-28T11:16:16.447Z,5.90
2022-09-28T11:17:16.340Z,5.00
2022-09-28T11:18:16.326Z,5.70
2022-09-28T11:19:17.428Z,6.00
2022-09-28T11:20:16.369Z,5.50
2022-09-28T11:21:16.290Z,5.30
2022-09-28T11:22:16.260Z,5.00
2022-09-28T11:23:16.306Z,6.90
2022-09-28T11:24:19.089Z,6.00
2022-09-28T11:25:17.241Z,6.50
2022-09-28T11:26:18.565Z,6.10
2022-09-28T11:27:17.216Z,6.60
2022-09-28T11:28:16.161Z,6.50
2022-09-28T11:29:16.192Z,6.20
2022-09-28T11:30:16.240Z,6.00
2022-09-28T11:31:16.153Z,6.20
2022-09-28T11:32:16.242Z,6.10
2022-09-28T11:33:16.083Z,7.00
2022-09-28T11:34:16.164Z,7.00
2022-09-28T11:35:16.063Z,5.60
2022-09-28T11:36:16.036Z,5.70
2022-09-28T11:37:16.028Z,6.10
2022-09-28T11:38:16.014Z,6.40
2022-09-28T11:39:16.116Z,8.00
2022-09-28T11:40:16.126Z,7.70
2022-09-28T11:41:15.948Z,6.30
2022-09-28T11:42:16.630Z,6.80
2022-09-28T11:43:17.044Z,7.80
2022-09-28T11:44:16.079Z,6.80
2022-09-28T11:45:15.962Z,6.50
2022-09-28T11:46:15.995Z,6.30
2022-09-28T11:47:15.867Z,5.60
2022-09-28T11:48:15.944Z,5.30
2022-09-28T11:49:15.865Z,6.30
2022-09-28T11:50:18.970Z,5.50
2022-09-28T11:51:16.794Z,6.40
2022-09-28T11:52:15.860Z,7.20
2022-09-28T11:53:15.761Z,9.40
2022-09-28T11:54:15.896Z,8.20
2022-09-28T11:55:15.718Z,8.00
2022-09-28T11:56:15.712Z,5.40
2022-09-28T11:57:15.684Z,7.40
2022-09-28T11:58:15.706Z,6.00
2022-09-28T11:59:15.688Z,5.20
2022-09-28T12:00:15.723Z,5.10
2022-09-28T12:01:18.930Z,4.50
2022-09-28T12:02:16.759Z,5.50
2022-09-28T12:03:15.688Z,5.00
2022-09-28T12:04:15.669Z,5.20
2022-09-28T12:05:20.515Z,6.10
2022-09-28T12:06:17.548Z,5.90
2022-09-28T12:07:15.536Z,6.20
2022-09-28T12:08:15.500Z,7.40
2022-09-28T12:09:15.590Z,5.60
2022-09-28T12:10:15.479Z,4.90
2022-09-28T12:11:15.479Z,4.90
2022-09-28T12:12:15.445Z,5.00
2022-09-28T12:13:15.438Z,4.50
2022-09-28T12:14:15.407Z,5.10
2022-09-28T12:15:15.478Z,5.30
2022-09-28T12:16:45.244Z,4.60
2022-09-28T12:17:20.111Z,4.30
2022-09-28T12:18:16.410Z,3.70
2022-09-28T12:19:15.532Z,4.80
2022-09-28T12:20:15.689Z,4.60
2022-09-28T12:21:15.301Z,4.30
2022-09-28T12:22:15.297Z,4.10
2022-09-28T12:23:15.280Z,3.60
2022-09-28T12:24:15.247Z,4.90
2022-09-28T12:25:15.266Z,4.00
2022-09-28T12:26:15.224Z,5.10
2022-09-28T12:27:15.189Z,4.70
2022-09-28T12:28:15.168Z,4.50
2022-09-28T12:29:15.226Z,4.20
2022-09-28T12:30:15.208Z,4.50
2022-09-28T12:31:15.180Z,4.00
2022-09-28T12:32:15.167Z,3.80
2022-09-28T12:33:15.094Z,4.40
2022-09-28T12:34:15.078Z,3.90
2022-09-28T12:35:15.146Z,5.10
2022-09-28T12:36:15.045Z,4.40
2022-09-28T12:37:15.032Z,5.60
2022-09-28T12:38:14.997Z,4.10
2022-09-28T12:39:21.665Z,4.80
2022-09-28T12:40:17.085Z,3.80
2022-09-28T12:41:15.001Z,3.10
2022-09-28T12:42:14.956Z,2.90
2022-09-28T12:43:14.930Z,3.10
2022-09-28T12:44:14.915Z,3.80
2022-09-28T12:45:14.930Z,3.40
2022-09-28T12:46:14.905Z,3.30
2022-09-28T12:47:14.910Z,2.90
2022-09-28T12:48:14.846Z,3.10
2022-09-28T12:51:16.794Z,2.90
2022-09-28T12:52:14.789Z,2.80
2022-09-28T12:53:14.809Z,3.00
2022-09-28T12:54:14.866Z,3.00
2022-09-28T12:55:14.752Z,2.30
2022-09-28T12:56:16.818Z,3.00
2022-09-28T12:57:15.727Z,3.30
2022-09-28T12:58:14.670Z,3.00
2022-09-28T12:59:14.808Z,2.90
2022-09-28T13:00:14.631Z,2.90
2022-09-28T13:01:14.714Z,3.90
2022-09-28T13:02:14.684Z,5.80
2022-09-28T13:03:14.624Z,3.90
2022-09-28T13:04:14.601Z,5.10
2022-09-28T13:05:14.604Z,3.50
2022-09-28T13:06:14.565Z,4.10
2022-09-28T13:07:14.540Z,4.40